sensor_id;sensor_type;location;lat;lon;timestamp;P1;durP1;ratioP1;P2;durP2;ratioP2
1054;SDS011;516;51.482;7.120;2022-12-24T00:05:42;21.77;;;6.60;;
1054;SDS011;516;51.482;7.120;2022-12-24T00:11:30;9.80;;;4.83;;
1054;SDS011;516;51.482;7.120;2022-12-24T00:17:18;23.30;;;6.30;;
1054;SDS011;516;51.482;7.120;2022-12-24T00:23:06;11.90;;;4.03;;
1054;SDS011;516;51.482;7.120;2022-12-24T00:28:54;18.87;;;4.50;;
1054;SDS011;516;51.482;7.120;2022-12-24T00:34:42;19.17;;;5.30;;
1054;SDS011;516;51.482;7.120;2022-12-24T00:40:30;17.53;;;4.40;;
1054;SDS011;516;51.482;7.120;2022-12-24T00:46:18;23.93;;;4.80;;
1054;SDS011;516;51.482;7.120;2022-12-24T00:52:06;23.13;;;4.60;;
1054;SDS011;516;51.482;7.120;2022-12-24T00:57:54;19.00;;;5.30;;
1054;SDS011;516;51.482;7.120;2022-12-24T01:03:41;22.90;;;5.17;;
1054;SDS011;516;51.482;7.120;2022-12-24T01:09:12;18.23;;;5.20;;
1054;SDS011;516;51.482;7.120;2022-12-24T01:11:38;16.53;;;5.57;;
1054;SDS011;516;51.482;7.120;2022-12-24T01:24:17;35.93;;;6.50;;
1054;SDS011;516;51.482;7.120;2022-12-24T01:30:05;19.67;;;4.67;;
1054;SDS011;516;51.482;7.120;2022-12-24T01:35:54;14.73;;;5.80;;
1054;SDS011;516;51.482;7.120;2022-12-24T01:41:41;22.40;;;5.37;;
1054;SDS011;516;51.482;7.120;2022-12-24T01:47:52;20.63;;;7.43;;
1054;SDS011;516;51.482;7.120;2022-12-24T01:53:40;15.27;;;5.03;;
1054;SDS011;516;51.482;7.120;2022-12-24T01:59:30;12.63;;;4.47;;
1054;SDS011;516;51.482;7.120;2022-12-24T02:11:14;12.87;;;5.53;;
1054;SDS011;516;51.482;7.120;2022-12-24T02:13:43;19.87;;;6.20;;
1054;SDS011;516;51.482;7.120;2022-12-24T02:35:33;25.07;;;4.23;;
1054;SDS011;516;51.482;7.120;2022-12-24T02:41:23;22.23;;;5.37;;
1054;SDS011;516;51.482;7.120;2022-12-24T02:47:14;20.57;;;7.70;;
1054;SDS011;516;51.482;7.120;2022-12-24T02:53:04;12.73;;;4.13;;
1054;SDS011;516;51.482;7.120;2022-12-24T03:05:25;22.17;;;6.77;;
1054;SDS011;516;51.482;7.120;2022-12-24T03:12:07;18.23;;;4.53;;
1054;SDS011;516;51.482;7.120;2022-12-24T03:21:39;23.60;;;6.27;;
1054;SDS011;516;51.482;7.120;2022-12-24T03:27:29;23.97;;;7.93;;
1054;SDS011;516;51.482;7.120;2022-12-24T03:33:18;17.33;;;6.07;;
1054;SDS011;516;51.482;7.120;2022-12-24T03:35:44;19.23;;;5.80;;
1054;SDS011;516;51.482;7.120;2022-12-24T03:38:10;19.30;;;5.67;;
1054;SDS011;516;51.482;7.120;2022-12-24T03:43:58;22.23;;;5.40;;
1054;SDS011;516;51.482;7.120;2022-12-24T03:49:45;18.67;;;4.73;;
1054;SDS011;516;51.482;7.120;2022-12-24T03:55:33;19.50;;;5.80;;
1054;SDS011;516;51.482;7.120;2022-12-24T04:01:21;18.70;;;5.60;;
1054;SDS011;516;51.482;7.120;2022-12-24T04:07:09;20.70;;;5.70;;
1054;SDS011;516;51.482;7.120;2022-12-24T04:12:56;22.60;;;5.33;;
1054;SDS011;516;51.482;7.120;2022-12-24T04:18:44;20.27;;;5.00;;
1054;SDS011;516;51.482;7.120;2022-12-24T04:24:32;17.03;;;5.07;;
1054;SDS011;516;51.482;7.120;2022-12-24T04:30:20;18.07;;;5.10;;
1054;SDS011;516;51.482;7.120;2022-12-24T04:36:09;17.93;;;3.93;;
1054;SDS011;516;51.482;7.120;2022-12-24T04:42:00;13.10;;;4.20;;
1054;SDS011;516;51.482;7.120;2022-12-24T04:47:48;22.40;;;5.90;;
1054;SDS011;516;51.482;7.120;2022-12-24T04:53:36;20.40;;;6.30;;
1054;SDS011;516;51.482;7.120;2022-12-24T04:59:24;10.63;;;3.87;;
1054;SDS011;516;51.482;7.120;2022-12-24T05:05:12;8.77;;;3.20;;
1054;SDS011;516;51.482;7.120;2022-12-24T05:11:00;18.17;;;5.27;;
1054;SDS011;516;51.482;7.120;2022-12-24T05:26:52;12.13;;;5.27;;
1054;SDS011;516;51.482;7.120;2022-12-24T05:32:41;16.87;;;5.30;;
1054;SDS011;516;51.482;7.120;2022-12-24T05:38:29;11.07;;;4.70;;
1054;SDS011;516;51.482;7.120;2022-12-24T05:44:17;17.03;;;4.80;;
1054;SDS011;516;51.482;7.120;2022-12-24T05:50:05;17.93;;;6.57;;
1054;SDS011;516;51.482;7.120;2022-12-24T05:55:53;12.37;;;5.90;;
1054;SDS011;516;51.482;7.120;2022-12-24T06:01:41;16.03;;;6.93;;
1054;SDS011;516;51.482;7.120;2022-12-24T06:07:33;24.70;;;5.30;;
1054;SDS011;516;51.482;7.120;2022-12-24T06:13:21;14.47;;;5.13;;
1054;SDS011;516;51.482;7.120;2022-12-24T06:22:35;17.80;;;5.50;;
1054;SDS011;516;51.482;7.120;2022-12-24T06:28:24;15.10;;;5.33;;
1054;SDS011;516;51.482;7.120;2022-12-24T06:34:13;19.23;;;5.57;;
1054;SDS011;516;51.482;7.120;2022-12-24T06:40:01;22.23;;;5.17;;
1054;SDS011;516;51.482;7.120;2022-12-24T06:45:48;11.10;;;4.07;;
1054;SDS011;516;51.482;7.120;2022-12-24T06:51:36;16.37;;;5.80;;
1054;SDS011;516;51.482;7.120;2022-12-24T06:57:25;21.07;;;5.93;;
1054;SDS011;516;51.482;7.120;2022-12-24T07:03:13;18.00;;;6.33;;
1054;SDS011;516;51.482;7.120;2022-12-24T07:09:00;16.50;;;5.37;;
1054;SDS011;516;51.482;7.120;2022-12-24T07:14:48;13.53;;;5.10;;
1054;SDS011;516;51.482;7.120;2022-12-24T07:20:29;14.20;;;6.03;;
1054;SDS011;516;51.482;7.120;2022-12-24T07:26:17;15.50;;;5.50;;
1054;SDS011;516;51.482;7.120;2022-12-24T07:32:05;20.37;;;6.80;;
1054;SDS011;516;51.482;7.120;2022-12-24T07:37:53;17.63;;;6.57;;
1054;SDS011;516;51.482;7.120;2022-12-24T07:43:41;17.63;;;8.03;;
1054;SDS011;516;51.482;7.120;2022-12-24T07:49:29;20.97;;;7.07;;
1054;SDS011;516;51.482;7.120;2022-12-24T07:55:17;23.87;;;7.17;;
1054;SDS011;516;51.482;7.120;2022-12-24T08:01:05;18.60;;;7.23;;
1054;SDS011;516;51.482;7.120;2022-12-24T08:06:52;13.23;;;5.00;;
1054;SDS011;516;51.482;7.120;2022-12-24T08:12:40;18.40;;;5.60;;
1054;SDS011;516;51.482;7.120;2022-12-24T08:28:22;25.77;;;6.23;;
1054;SDS011;516;51.482;7.120;2022-12-24T08:34:10;16.90;;;5.70;;
1054;SDS011;516;51.482;7.120;2022-12-24T08:39:58;16.50;;;6.30;;
1054;SDS011;516;51.482;7.120;2022-12-24T08:45:46;28.07;;;6.73;;
1054;SDS011;516;51.482;7.120;2022-12-24T08:51:35;25.47;;;6.43;;
1054;SDS011;516;51.482;7.120;2022-12-24T08:57:23;21.63;;;8.87;;
1054;SDS011;516;51.482;7.120;2022-12-24T09:03:12;20.70;;;6.07;;
1054;SDS011;516;51.482;7.120;2022-12-24T09:09:02;17.77;;;5.53;;
1054;SDS011;516;51.482;7.120;2022-12-24T09:14:50;24.33;;;7.10;;
1054;SDS011;516;51.482;7.120;2022-12-24T09:20:29;19.17;;;5.93;;
1054;SDS011;516;51.482;7.120;2022-12-24T09:26:22;12.40;;;5.80;;
1054;SDS011;516;51.482;7.120;2022-12-24T09:32:15;19.00;;;5.60;;
1054;SDS011;516;51.482;7.120;2022-12-24T09:38:03;17.60;;;6.43;;
1054;SDS011;516;51.482;7.120;2022-12-24T09:50:59;17.83;;;7.43;;
1054;SDS011;516;51.482;7.120;2022-12-24T10:00:36;24.20;;;6.37;;
1054;SDS011;516;51.482;7.120;2022-12-24T10:06:23;20.67;;;6.97;;
1054;SDS011;516;51.482;7.120;2022-12-24T10:13:20;23.17;;;6.80;;
1054;SDS011;516;51.482;7.120;2022-12-24T10:23:22;19.90;;;6.20;;
1054;SDS011;516;51.482;7.120;2022-12-24T10:32:54;31.53;;;6.70;;
1054;SDS011;516;51.482;7.120;2022-12-24T10:38:42;16.87;;;5.73;;
1054;SDS011;516;51.482;7.120;2022-12-24T10:44:30;21.30;;;5.40;;
1054;SDS011;516;51.482;7.120;2022-12-24T10:50:30;31.10;;;7.00;;
1054;SDS011;516;51.482;7.120;2022-12-24T10:56:42;21.37;;;6.33;;
1054;SDS011;516;51.482;7.120;2022-12-24T11:02:37;18.17;;;6.70;;
1054;SDS011;516;51.482;7.120;2022-12-24T11:08:25;17.00;;;7.90;;
1054;SDS011;516;51.482;7.120;2022-12-24T11:14:15;22.70;;;8.50;;
1054;SDS011;516;51.482;7.120;2022-12-24T11:23:27;17.20;;;5.80;;
1054;SDS011;516;51.482;7.120;2022-12-24T11:35:07;18.47;;;8.43;;
1054;SDS011;516;51.482;7.120;2022-12-24T11:41:36;22.30;;;8.23;;
1054;SDS011;516;51.482;7.120;2022-12-24T11:47:35;19.03;;;8.83;;
1054;SDS011;516;51.482;7.120;2022-12-24T11:53:25;29.70;;;9.37;;
1054;SDS011;516;51.482;7.120;2022-12-24T11:59:40;16.17;;;7.60;;
1054;SDS011;516;51.482;7.120;2022-12-24T12:05:50;24.10;;;9.47;;
1054;SDS011;516;51.482;7.120;2022-12-24T12:11:41;20.90;;;8.30;;
1054;SDS011;516;51.482;7.120;2022-12-24T12:17:47;14.10;;;7.00;;
1054;SDS011;516;51.482;7.120;2022-12-24T12:24:02;9.40;;;5.93;;
1054;SDS011;516;51.482;7.120;2022-12-24T12:26:56;15.07;;;7.90;;
1054;SDS011;516;51.482;7.120;2022-12-24T12:33:26;18.23;;;8.20;;
1054;SDS011;516;51.482;7.120;2022-12-24T12:39:55;20.47;;;10.77;;
1054;SDS011;516;51.482;7.120;2022-12-24T12:45:53;25.47;;;11.93;;
1054;SDS011;516;51.482;7.120;2022-12-24T12:58:40;25.67;;;7.10;;
1054;SDS011;516;51.482;7.120;2022-12-24T13:27:10;15.37;;;5.70;;
1054;SDS011;516;51.482;7.120;2022-12-24T13:39:26;21.13;;;6.90;;
1054;SDS011;516;51.482;7.120;2022-12-24T13:51:18;19.47;;;6.07;;
1054;SDS011;516;51.482;7.120;2022-12-24T14:03:53;17.03;;;7.60;;
1054;SDS011;516;51.482;7.120;2022-12-24T14:09:47;20.27;;;7.87;;
1054;SDS011;516;51.482;7.120;2022-12-24T14:21:37;19.53;;;8.43;;
1054;SDS011;516;51.482;7.120;2022-12-24T14:28:13;17.90;;;7.73;;
1054;SDS011;516;51.482;7.120;2022-12-24T14:34:05;20.83;;;7.03;;
1054;SDS011;516;51.482;7.120;2022-12-24T14:39:58;18.97;;;6.90;;
1054;SDS011;516;51.482;7.120;2022-12-24T14:57:50;15.20;;;9.23;;
1054;SDS011;516;51.482;7.120;2022-12-24T15:04:18;12.60;;;7.83;;
1054;SDS011;516;51.482;7.120;2022-12-24T15:10:25;19.27;;;7.30;;
1054;SDS011;516;51.482;7.120;2022-12-24T15:16:57;17.00;;;8.10;;
1054;SDS011;516;51.482;7.120;2022-12-24T15:29:32;21.23;;;7.80;;
1054;SDS011;516;51.482;7.120;2022-12-24T15:35:33;24.70;;;8.33;;
1054;SDS011;516;51.482;7.120;2022-12-24T15:41:59;16.47;;;8.10;;
1054;SDS011;516;51.482;7.120;2022-12-24T15:48:06;18.07;;;8.77;;
1054;SDS011;516;51.482;7.120;2022-12-24T15:54:03;22.63;;;10.23;;
1054;SDS011;516;51.482;7.120;2022-12-24T15:59:57;25.47;;;10.80;;
1054;SDS011;516;51.482;7.120;2022-12-24T16:06:08;27.43;;;16.63;;
1054;SDS011;516;51.482;7.120;2022-12-24T16:11:59;29.53;;;11.10;;
1054;SDS011;516;51.482;7.120;2022-12-24T16:17:48;27.97;;;11.50;;
1054;SDS011;516;51.482;7.120;2022-12-24T16:23:37;29.57;;;13.97;;
1054;SDS011;516;51.482;7.120;2022-12-24T16:29:51;42.10;;;19.23;;
1054;SDS011;516;51.482;7.120;2022-12-24T16:35:38;25.50;;;10.60;;
1054;SDS011;516;51.482;7.120;2022-12-24T16:41:26;20.93;;;9.57;;
1054;SDS011;516;51.482;7.120;2022-12-24T16:47:16;17.03;;;8.40;;
1054;SDS011;516;51.482;7.120;2022-12-24T16:53:07;26.17;;;8.30;;
1054;SDS011;516;51.482;7.120;2022-12-24T16:58:59;21.07;;;9.00;;
1054;SDS011;516;51.482;7.120;2022-12-24T17:04:47;20.37;;;10.23;;
1054;SDS011;516;51.482;7.120;2022-12-24T17:10:35;19.43;;;10.10;;
1054;SDS011;516;51.482;7.120;2022-12-24T17:16:23;22.70;;;10.43;;
1054;SDS011;516;51.482;7.120;2022-12-24T17:22:11;27.83;;;11.17;;
1054;SDS011;516;51.482;7.120;2022-12-24T17:27:59;26.07;;;10.00;;
1054;SDS011;516;51.482;7.120;2022-12-24T17:33:47;26.73;;;11.47;;
1054;SDS011;516;51.482;7.120;2022-12-24T17:39:36;21.50;;;10.13;;
1054;SDS011;516;51.482;7.120;2022-12-24T17:45:25;30.30;;;12.90;;
1054;SDS011;516;51.482;7.120;2022-12-24T17:51:14;34.73;;;12.63;;
1054;SDS011;516;51.482;7.120;2022-12-24T17:57:04;17.10;;;10.70;;
1054;SDS011;516;51.482;7.120;2022-12-24T18:02:51;22.73;;;10.60;;
1054;SDS011;516;51.482;7.120;2022-12-24T18:08:39;36.40;;;16.30;;
1054;SDS011;516;51.482;7.120;2022-12-24T18:14:28;42.60;;;21.90;;
1054;SDS011;516;51.482;7.120;2022-12-24T18:20:17;35.43;;;16.00;;
1054;SDS011;516;51.482;7.120;2022-12-24T18:22:43;39.27;;;14.87;;
1054;SDS011;516;51.482;7.120;2022-12-24T18:25:10;36.07;;;15.70;;
1054;SDS011;516;51.482;7.120;2022-12-24T18:31:00;35.97;;;14.73;;
1054;SDS011;516;51.482;7.120;2022-12-24T18:36:49;43.40;;;13.60;;
1054;SDS011;516;51.482;7.120;2022-12-24T18:42:38;32.23;;;12.77;;
1054;SDS011;516;51.482;7.120;2022-12-24T18:48:28;36.97;;;16.60;;
1054;SDS011;516;51.482;7.120;2022-12-24T18:54:16;36.67;;;12.87;;
1054;SDS011;516;51.482;7.120;2022-12-24T18:59:45;29.97;;;10.33;;
1054;SDS011;516;51.482;7.120;2022-12-24T19:05:33;29.30;;;12.23;;
1054;SDS011;516;51.482;7.120;2022-12-24T19:11:21;28.30;;;12.70;;
1054;SDS011;516;51.482;7.120;2022-12-24T19:17:09;33.60;;;11.23;;
1054;SDS011;516;51.482;7.120;2022-12-24T19:32:59;29.87;;;13.43;;
1054;SDS011;516;51.482;7.120;2022-12-24T19:38:47;34.87;;;15.80;;
1054;SDS011;516;51.482;7.120;2022-12-24T19:44:34;45.77;;;14.57;;
1054;SDS011;516;51.482;7.120;2022-12-24T19:50:22;38.57;;;13.90;;
1054;SDS011;516;51.482;7.120;2022-12-24T19:56:12;26.67;;;12.63;;
1054;SDS011;516;51.482;7.120;2022-12-24T20:02:01;26.50;;;13.00;;
1054;SDS011;516;51.482;7.120;2022-12-24T20:07:48;26.10;;;12.37;;
1054;SDS011;516;51.482;7.120;2022-12-24T20:13:36;29.17;;;14.00;;
1054;SDS011;516;51.482;7.120;2022-12-24T20:19:25;23.83;;;13.47;;
1054;SDS011;516;51.482;7.120;2022-12-24T20:25:23;22.17;;;13.40;;
1054;SDS011;516;51.482;7.120;2022-12-24T20:31:13;27.43;;;13.37;;
1054;SDS011;516;51.482;7.120;2022-12-24T20:37:02;25.80;;;13.37;;
1054;SDS011;516;51.482;7.120;2022-12-24T20:42:51;46.97;;;16.37;;
1054;SDS011;516;51.482;7.120;2022-12-24T20:52:02;30.90;;;13.23;;
1054;SDS011;516;51.482;7.120;2022-12-24T20:57:49;51.43;;;16.50;;
1054;SDS011;516;51.482;7.120;2022-12-24T21:03:37;31.03;;;14.90;;
1054;SDS011;516;51.482;7.120;2022-12-24T21:09:25;37.67;;;12.83;;
1054;SDS011;516;51.482;7.120;2022-12-24T21:15:21;28.43;;;13.63;;
1054;SDS011;516;51.482;7.120;2022-12-24T21:21:10;35.80;;;13.90;;
1054;SDS011;516;51.482;7.120;2022-12-24T21:26:58;30.60;;;13.10;;
1054;SDS011;516;51.482;7.120;2022-12-24T21:32:46;38.63;;;13.23;;
1054;SDS011;516;51.482;7.120;2022-12-24T21:38:34;35.07;;;13.10;;
1054;SDS011;516;51.482;7.120;2022-12-24T21:44:22;30.97;;;13.67;;
1054;SDS011;516;51.482;7.120;2022-12-24T21:50:11;24.30;;;12.03;;
1054;SDS011;516;51.482;7.120;2022-12-24T21:56:18;35.97;;;12.70;;
1054;SDS011;516;51.482;7.120;2022-12-24T22:02:08;25.83;;;10.87;;
1054;SDS011;516;51.482;7.120;2022-12-24T22:07:57;29.93;;;10.90;;
1054;SDS011;516;51.482;7.120;2022-12-24T22:14:03;30.60;;;9.70;;
1054;SDS011;516;51.482;7.120;2022-12-24T22:19:50;23.87;;;10.47;;
1054;SDS011;516;51.482;7.120;2022-12-24T22:25:06;33.47;;;10.80;;
1054;SDS011;516;51.482;7.120;2022-12-24T22:30:53;28.17;;;10.23;;
1054;SDS011;516;51.482;7.120;2022-12-24T22:36:42;21.73;;;8.97;;
1054;SDS011;516;51.482;7.120;2022-12-24T22:42:29;21.33;;;8.40;;
1054;SDS011;516;51.482;7.120;2022-12-24T22:48:19;20.67;;;8.80;;
1054;SDS011;516;51.482;7.120;2022-12-24T22:54:06;26.10;;;9.70;;
1054;SDS011;516;51.482;7.120;2022-12-24T22:59:54;21.63;;;8.90;;
1054;SDS011;516;51.482;7.120;2022-12-24T23:05:42;27.93;;;9.50;;
1054;SDS011;516;51.482;7.120;2022-12-24T23:11:31;19.33;;;8.60;;
1054;SDS011;516;51.482;7.120;2022-12-24T23:17:18;17.87;;;8.47;;
1054;SDS011;516;51.482;7.120;2022-12-24T23:33:00;14.50;;;8.90;;
1054;SDS011;516;51.482;7.120;2022-12-24T23:38:47;20.27;;;8.87;;
1054;SDS011;516;51.482;7.120;2022-12-24T23:44:35;19.23;;;8.43;;
1054;SDS011;516;51.482;7.120;2022-12-24T23:50:23;24.73;;;9.10;;
1054;SDS011;516;51.482;7.120;2022-12-24T23:56:12;13.60;;;6.80;;
